createdAt,value
2022-09-24T00:01:16.816Z,100994.00
2022-09-24T00:03:47.669Z,100990.03
2022-09-24T00:06:14.297Z,100979.97
2022-09-24T00:08:41.782Z,100983.13
2022-09-24T00:11:11.506Z,100978.31
2022-09-24T00:13:39.350Z,100975.06
2022-09-24T00:16:09.209Z,100980.50
2022-09-24T00:18:35.726Z,100979.47
2022-09-24T00:21:16.109Z,100989.25
2022-09-24T00:23:43.355Z,100977.09
2022-09-24T00:26:31.711Z,100980.25
2022-09-24T00:28:58.641Z,100984.34
2022-09-24T00:31:25.552Z,100974.16
2022-09-24T00:33:53.071Z,100971.25
2022-09-24T00:36:21.268Z,100972.72
2022-09-24T00:38:53.068Z,100970.03
2022-09-24T00:41:20.918Z,100966.25
2022-09-24T00:43:49.441Z,100964.22
2022-09-24T00:46:42.643Z,100963.63
2022-09-24T00:49:16.497Z,100961.06
2022-09-24T00:51:46.057Z,100960.44
2022-09-24T00:54:28.613Z,100953.31
2022-09-24T00:56:57.488Z,100946.66
2022-09-24T00:59:25.534Z,100950.38
2022-09-24T01:01:59.275Z,100952.50
2022-09-24T01:04:27.731Z,100942.00
2022-09-24T01:06:55.452Z,100948.91
2022-09-24T01:09:24.230Z,100950.91
2022-09-24T01:12:06.319Z,100938.97
2022-09-24T01:14:59.486Z,100939.91
2022-09-24T01:17:37.132Z,100930.44
2022-09-24T01:20:03.808Z,100922.34
2022-09-24T01:22:51.882Z,100926.41
2022-09-24T01:25:26.498Z,100924.63
2022-09-24T01:28:15.134Z,100919.31
2022-09-24T01:30:42.595Z,100915.69
2022-09-24T01:33:14.925Z,100914.69
2022-09-24T01:35:50.712Z,100921.22
2022-09-24T01:38:21.401Z,100913.59
2022-09-24T01:40:51.118Z,100910.72
2022-09-24T01:43:21.309Z,100914.09
2022-09-24T01:45:48.745Z,100914.22
2022-09-24T01:48:16.367Z,100910.63
2022-09-24T01:50:50.709Z,100907.91
2022-09-24T01:53:21.364Z,100913.53
2022-09-24T01:55:52.204Z,100922.00
2022-09-24T01:58:27.505Z,100928.09
2022-09-24T02:01:03.140Z,100928.78
2022-09-24T02:03:33.080Z,100921.91
2022-09-24T02:06:05.345Z,100916.13
2022-09-24T02:08:36.904Z,100916.94
2022-09-24T02:11:14.777Z,100920.31
2022-09-24T02:13:54.333Z,100913.31
2022-09-24T02:16:27.481Z,100917.47
2022-09-24T02:18:57.562Z,100916.72
2022-09-24T02:21:25.844Z,100902.72
2022-09-24T02:24:00.739Z,100903.50
2022-09-24T02:26:27.408Z,100889.97
2022-09-24T02:28:54.430Z,100884.22
2022-09-24T02:31:30.970Z,100879.25
2022-09-24T02:34:20.054Z,100872.84
2022-09-24T02:36:48.326Z,100864.00
2022-09-24T02:39:14.837Z,100868.44
2022-09-24T02:41:42.608Z,100872.38
2022-09-24T02:44:09.081Z,100859.38
2022-09-24T02:46:35.567Z,100860.53
2022-09-24T02:49:02.108Z,100858.63
2022-09-24T02:51:28.562Z,100859.97
2022-09-24T02:53:54.997Z,100865.59
2022-09-24T02:56:21.384Z,100861.41
2022-09-24T02:58:47.830Z,100866.59
2022-09-24T03:01:14.476Z,100856.44
2022-09-24T03:03:41.007Z,100858.34
2022-09-24T03:06:07.519Z,100855.75
2022-09-24T03:08:35.191Z,100866.34
2022-09-24T03:11:01.661Z,100866.44
2022-09-24T03:13:28.109Z,100862.53
2022-09-24T03:15:54.731Z,100864.31
2022-09-24T03:18:21.747Z,100858.34
2022-09-24T03:20:58.917Z,100868.16
2022-09-24T03:23:25.406Z,100871.75
2022-09-24T03:25:51.846Z,100868.47
2022-09-24T03:28:18.348Z,100853.69
2022-09-24T03:31:00.159Z,100859.66
2022-09-24T03:33:27.984Z,100866.34
2022-09-24T03:36:07.844Z,100861.38
2022-09-24T03:38:35.323Z,100854.38
2022-09-24T03:41:02.985Z,100851.56
2022-09-24T03:43:29.598Z,100845.56
2022-09-24T03:45:55.988Z,100843.56
2022-09-24T03:48:24.038Z,100842.25
2022-09-24T03:50:50.705Z,100840.63
2022-09-24T03:53:18.359Z,100837.41
2022-09-24T03:55:46.837Z,100844.72
2022-09-24T03:58:14.517Z,100845.94
2022-09-24T04:00:41.381Z,100845.16
2022-09-24T04:03:08.507Z,100837.84
2022-09-24T04:05:36.023Z,100835.75
2022-09-24T04:08:05.074Z,100839.75
2022-09-24T04:10:32.050Z,100845.56
2022-09-24T04:12:58.518Z,100843.78
2022-09-24T04:15:25.137Z,100846.38
2022-09-24T04:17:58.938Z,100846.69
2022-09-24T04:20:27.809Z,100839.91
2022-09-24T04:22:56.357Z,100837.22
2022-09-24T04:25:24.250Z,100836.31
2022-09-24T04:28:02.277Z,100838.00
2022-09-24T04:30:30.330Z,100837.59
2022-09-24T04:33:00.750Z,100838.59
2022-09-24T04:35:29.816Z,100840.88
2022-09-24T04:37:57.076Z,100845.25
2022-09-24T04:40:23.534Z,100842.88
2022-09-24T04:42:50.033Z,100822.00
2022-09-24T04:45:19.261Z,100817.66
2022-09-24T04:47:52.518Z,100829.94
2022-09-24T04:50:19.826Z,100832.75
2022-09-24T04:52:46.265Z,100835.25
2022-09-24T04:55:12.673Z,100822.16
2022-09-24T04:57:41.125Z,100829.16
2022-09-24T05:00:11.516Z,100824.66
2022-09-24T05:02:38.006Z,100824.75
2022-09-24T05:05:04.885Z,100813.72
2022-09-24T05:07:31.329Z,100818.28
2022-09-24T05:09:57.831Z,100820.56
2022-09-24T05:12:24.341Z,100822.16
2022-09-24T05:14:50.890Z,100828.97
2022-09-24T05:17:17.337Z,100833.91
2022-09-24T05:19:43.748Z,100829.75
2022-09-24T05:22:10.213Z,100832.53
2022-09-24T05:24:36.647Z,100827.34
2022-09-24T05:27:11.788Z,100823.66
2022-09-24T05:29:38.195Z,100827.25
2022-09-24T05:32:10.257Z,100827.13
2022-09-24T05:34:36.901Z,100825.34
2022-09-24T05:37:04.095Z,100823.28
2022-09-24T05:39:33.980Z,100831.25
2022-09-24T05:42:01.851Z,100835.69
2022-09-24T05:44:28.270Z,100832.97
2022-09-24T05:46:54.794Z,100843.22
2022-09-24T05:49:21.287Z,100846.06
2022-09-24T05:51:51.469Z,100852.34
2022-09-24T05:54:19.147Z,100851.78
2022-09-24T05:56:46.142Z,100850.38
2022-09-24T05:59:13.091Z,100848.28
2022-09-24T06:01:39.645Z,100850.25
2022-09-24T06:04:09.010Z,100844.28
2022-09-24T06:06:36.108Z,100848.13
2022-09-24T06:09:03.397Z,100850.84
2022-09-24T06:11:39.789Z,100850.63
2022-09-24T06:14:08.413Z,100858.81
2022-09-24T06:16:35.067Z,100861.22
2022-09-24T06:19:01.614Z,100864.28
2022-09-24T06:21:28.280Z,100864.81
2022-09-24T06:23:54.710Z,100870.78
2022-09-24T06:26:21.467Z,100874.38
2022-09-24T06:28:47.965Z,100872.84
2022-09-24T06:31:14.504Z,100875.44
2022-09-24T06:33:41.019Z,100878.69
2022-09-24T06:36:08.053Z,100883.53
2022-09-24T06:38:35.413Z,100880.16
2022-09-24T06:41:04.584Z,100877.66
2022-09-24T06:43:32.329Z,100885.34
2022-09-24T06:46:00.217Z,100883.53
2022-09-24T06:48:28.021Z,100873.63
2022-09-24T06:50:56.231Z,100886.59
2022-09-24T06:53:22.770Z,100895.41
2022-09-24T06:55:49.436Z,100898.00
2022-09-24T06:58:19.979Z,100894.59
2022-09-24T07:01:01.644Z,100900.47
2022-09-24T07:03:33.541Z,100897.53
2022-09-24T07:06:02.160Z,100904.44
2022-09-24T07:08:28.582Z,100902.03
2022-09-24T07:10:55.021Z,100906.56
2022-09-24T07:13:22.219Z,100910.63
2022-09-24T07:15:50.254Z,100906.56
2022-09-24T07:18:17.810Z,100907.00
2022-09-24T07:20:44.407Z,100903.63
2022-09-24T07:23:12.767Z,100898.41
2022-09-24T07:25:39.627Z,100898.31
2022-09-24T07:28:11.745Z,100905.00
2022-09-24T07:30:38.798Z,100904.31
2022-09-24T07:33:07.471Z,100903.19
2022-09-24T07:35:34.454Z,100903.41
2022-09-24T07:38:03.745Z,100899.56
2022-09-24T07:40:31.574Z,100903.28
2022-09-24T07:42:58.617Z,100899.31
2022-09-24T07:45:31.081Z,100904.50
2022-09-24T07:47:59.127Z,100905.31
2022-09-24T07:50:27.500Z,100910.31
2022-09-24T07:52:54.261Z,100913.66
2022-09-24T07:55:21.522Z,100913.09
2022-09-24T07:57:52.931Z,100915.31
2022-09-24T08:00:20.951Z,100924.25
2022-09-24T08:02:48.319Z,100917.84
2022-09-24T08:05:17.953Z,100916.72
2022-09-24T08:07:53.408Z,100920.00
2022-09-24T08:10:20.315Z,100928.47
2022-09-24T08:12:46.803Z,100920.75
2022-09-24T08:15:13.314Z,100924.81
2022-09-24T08:17:39.955Z,100926.59
2022-09-24T08:20:06.983Z,100928.63
2022-09-24T08:22:33.717Z,100927.03
2022-09-24T08:25:00.725Z,100930.44
2022-09-24T08:27:27.891Z,100920.47
2022-09-24T08:29:54.289Z,100922.28
2022-09-24T08:32:20.709Z,100926.34
2022-09-24T08:34:47.102Z,100921.28
2022-09-24T08:37:13.764Z,100920.38
2022-09-24T08:39:40.362Z,100915.06
2022-09-24T08:42:13.873Z,100923.22
2022-09-24T08:45:03.854Z,100921.22
2022-09-24T08:47:48.221Z,100929.81
2022-09-24T08:50:24.363Z,100932.97
2022-09-24T08:53:16.903Z,100934.53
2022-09-24T08:55:48.276Z,100939.94
2022-09-24T08:58:17.636Z,100942.13
2022-09-24T09:00:55.505Z,100937.16
2022-09-24T09:03:32.058Z,100928.78
2022-09-24T09:06:05.300Z,100932.72
2022-09-24T09:09:05.622Z,100935.00
2022-09-24T09:11:33.572Z,100938.50
2022-09-24T09:14:31.611Z,100946.84
2022-09-24T09:17:36.798Z,100952.91
2022-09-24T09:20:10.593Z,100956.00
2022-09-24T09:22:47.030Z,100955.50
2022-09-24T09:25:25.785Z,100954.41
2022-09-24T09:28:01.094Z,100946.50
2022-09-24T09:30:36.988Z,100946.72
2022-09-24T09:33:20.683Z,100946.72
2022-09-24T09:36:24.118Z,100946.63
2022-09-24T09:39:26.049Z,100951.91
2022-09-24T09:42:26.479Z,100955.88
2022-09-24T09:44:53.884Z,100955.31
2022-09-24T09:47:24.599Z,100954.06
2022-09-24T09:49:53.719Z,100947.41
2022-09-24T09:52:22.173Z,100950.13
2022-09-24T09:54:49.047Z,100953.38
2022-09-24T09:57:18.685Z,100957.75
2022-09-24T09:59:50.488Z,100961.03
2022-09-24T10:02:43.365Z,100963.75
2022-09-24T10:05:24.970Z,100963.53
2022-09-24T10:07:53.535Z,100970.53
2022-09-24T10:10:26.079Z,100958.88
2022-09-24T10:12:54.320Z,100967.56
2022-09-24T10:15:24.153Z,100967.56
2022-09-24T10:17:54.033Z,100960.09
2022-09-24T10:20:33.702Z,100970.59
2022-09-24T10:23:07.457Z,100968.38
2022-09-24T10:25:37.106Z,100967.91
2022-09-24T10:28:27.746Z,100972.00
2022-09-24T10:31:00.390Z,100975.06
2022-09-24T10:33:35.345Z,100979.34
2022-09-24T10:36:26.585Z,100972.47
2022-09-24T10:39:04.744Z,100964.34
2022-09-24T10:41:32.030Z,100954.41
2022-09-24T10:44:04.259Z,100953.53
2022-09-24T10:47:01.957Z,100951.03
2022-09-24T10:49:37.853Z,100946.78
2022-09-24T10:52:30.628Z,100962.34
2022-09-24T10:55:12.249Z,100957.16
2022-09-24T10:58:04.425Z,100949.00
2022-09-24T11:00:49.098Z,100949.56
2022-09-24T11:03:43.454Z,100947.88
2022-09-24T11:06:32.769Z,100941.00
2022-09-24T11:09:20.580Z,100944.94
2022-09-24T11:12:15.427Z,100944.94
2022-09-24T11:15:03.011Z,100942.00
2022-09-24T11:17:44.063Z,100943.84
2022-09-24T11:20:17.042Z,100937.50
2022-09-24T11:23:00.379Z,100929.97
2022-09-24T11:25:32.837Z,100930.06
2022-09-24T11:28:20.710Z,100933.09
2022-09-24T11:30:59.342Z,100918.00
2022-09-24T11:33:30.749Z,100912.91
2022-09-24T11:36:11.977Z,100917.41
2022-09-24T11:38:41.285Z,100905.13
2022-09-24T11:41:49.701Z,100898.38
2022-09-24T11:44:27.076Z,100899.38
2022-09-24T11:47:30.827Z,100901.63
2022-09-24T11:50:38.055Z,100884.59
2022-09-24T11:53:26.012Z,100880.16
2022-09-24T11:55:58.606Z,100882.88
2022-09-24T11:58:46.602Z,100881.63
2022-09-24T12:01:23.184Z,100878.81
2022-09-24T12:04:24.999Z,100872.84
2022-09-24T12:07:15.492Z,100863.66
2022-09-24T12:09:49.062Z,100851.94
2022-09-24T12:12:21.208Z,100855.44
2022-09-24T12:15:01.577Z,100844.16
2022-09-24T12:17:39.967Z,100837.53
2022-09-24T12:20:20.651Z,100835.56
2022-09-24T12:22:57.446Z,100827.31
2022-09-24T12:25:23.970Z,100823.66
2022-09-24T12:27:50.677Z,100821.38
2022-09-24T12:30:47.855Z,100824.66
2022-09-24T12:33:32.079Z,100829.28
2022-09-24T12:36:17.577Z,100830.63
2022-09-24T12:38:49.599Z,100827.25
2022-09-24T12:41:33.069Z,100829.47
2022-09-24T12:44:11.604Z,100832.81
2022-09-24T12:46:46.611Z,100819.66
2022-09-24T12:49:25.331Z,100828.09
2022-09-24T12:51:53.853Z,100820.50
2022-09-24T12:54:26.698Z,100813.03
2022-09-24T12:57:04.674Z,100814.34
2022-09-24T12:59:31.097Z,100821.16
2022-09-24T13:02:14.910Z,100834.22
2022-09-24T13:04:49.597Z,100826.59
2022-09-24T13:07:28.797Z,100826.47
2022-09-24T13:09:55.228Z,100831.47
2022-09-24T13:12:29.604Z,100827.28
2022-09-24T13:15:04.211Z,100824.91
2022-09-24T13:17:33.127Z,100822.88
2022-09-24T13:20:05.559Z,100823.06
2022-09-24T13:22:37.061Z,100830.09
2022-09-24T13:25:09.503Z,100831.28
2022-09-24T13:27:41.889Z,100825.63
2022-09-24T13:30:35.954Z,100819.94
2022-09-24T13:33:09.816Z,100830.22
2022-09-24T13:35:57.610Z,100828.31
2022-09-24T13:39:02.028Z,100823.50
2022-09-24T13:41:50.684Z,100817.13
2022-09-24T13:44:24.916Z,100813.03
2022-09-24T13:47:16.701Z,100821.94
2022-09-24T13:49:47.567Z,100818.06
2022-09-24T13:52:35.410Z,100817.25
2022-09-24T13:55:08.937Z,100807.63
2022-09-24T13:57:44.195Z,100807.44
2022-09-24T14:00:19.823Z,100806.53
2022-09-24T14:03:19.243Z,100808.34
2022-09-24T14:05:45.864Z,100806.25
2022-09-24T14:08:15.436Z,100805.53
2022-09-24T14:10:42.953Z,100793.66
2022-09-24T14:13:22.844Z,100795.34
2022-09-24T14:16:10.293Z,100788.34
2022-09-24T14:18:37.178Z,100782.97
2022-09-24T14:21:27.666Z,100778.28
2022-09-24T14:24:00.029Z,100775.06
2022-09-24T14:26:35.003Z,100778.38
2022-09-24T14:29:09.273Z,100769.59
2022-09-24T14:31:45.133Z,100775.78
2022-09-24T14:34:40.033Z,100777.97
2022-09-24T14:37:21.373Z,100771.91
2022-09-24T14:39:50.066Z,100763.81
2022-09-24T14:42:24.376Z,100768.00
2022-09-24T14:44:51.669Z,100757.09
2022-09-24T14:47:28.194Z,100757.00
2022-09-24T14:49:55.022Z,100752.41
2022-09-24T14:52:31.042Z,100756.72
2022-09-24T14:55:13.039Z,100742.13
2022-09-24T14:57:43.357Z,100749.91
2022-09-24T15:00:19.477Z,100746.22
2022-09-24T15:02:51.809Z,100748.09
2022-09-24T15:05:24.556Z,100754.59
2022-09-24T15:07:51.530Z,100745.81
2022-09-24T15:10:23.851Z,100756.00
2022-09-24T15:12:50.666Z,100750.69
2022-09-24T15:15:17.107Z,100748.81
2022-09-24T15:17:47.140Z,100742.00
2022-09-24T15:20:14.065Z,100756.91
2022-09-24T15:22:40.506Z,100754.59
2022-09-24T15:25:07.477Z,100755.31
2022-09-24T15:27:37.965Z,100748.41
2022-09-24T15:30:07.723Z,100747.63
2022-09-24T15:32:37.763Z,100746.03
2022-09-24T15:35:09.683Z,100747.91
2022-09-24T15:37:39.740Z,100739.59
2022-09-24T15:40:07.989Z,100746.00
2022-09-24T15:42:34.565Z,100752.00
2022-09-24T15:45:00.972Z,100752.78
2022-09-24T15:47:27.473Z,100747.41
2022-09-24T15:49:53.918Z,100748.22
2022-09-24T15:52:32.773Z,100742.81
2022-09-24T15:55:02.895Z,100748.50
2022-09-24T15:57:29.275Z,100751.22
2022-09-24T15:59:55.680Z,100745.72
2022-09-24T16:02:28.810Z,100752.53
2022-09-24T16:04:56.636Z,100743.22
2022-09-24T16:07:26.011Z,100747.63
2022-09-24T16:09:52.637Z,100743.22
2022-09-24T16:12:20.558Z,100751.00
2022-09-24T16:14:47.375Z,100740.59
2022-09-24T16:17:13.768Z,100742.44
2022-09-24T16:19:40.217Z,100744.03
2022-09-24T16:22:06.640Z,100742.91
2022-09-24T16:24:33.676Z,100748.81
2022-09-24T16:27:00.769Z,100748.81
2022-09-24T16:29:27.211Z,100751.41
2022-09-24T16:31:53.597Z,100747.03
2022-09-24T16:34:20.673Z,100742.72
2022-09-24T16:36:47.389Z,100740.91
2022-09-24T16:39:15.707Z,100739.72
2022-09-24T16:41:42.166Z,100746.41
2022-09-24T16:44:11.223Z,100738.22
2022-09-24T16:46:37.686Z,100745.81
2022-09-24T16:49:04.226Z,100743.09
2022-09-24T16:51:30.621Z,100749.38
2022-09-24T16:53:57.070Z,100732.03
2022-09-24T16:56:23.909Z,100737.03
2022-09-24T16:58:51.030Z,100739.50
2022-09-24T17:01:19.586Z,100746.28
2022-09-24T17:03:53.418Z,100747.22
2022-09-24T17:06:22.609Z,100750.31
2022-09-24T17:09:07.640Z,100757.97
2022-09-24T17:11:34.745Z,100756.28
2022-09-24T17:14:01.742Z,100751.44
2022-09-24T17:16:29.026Z,100760.50
2022-09-24T17:18:55.724Z,100749.50
2022-09-24T17:21:23.230Z,100749.72
2022-09-24T17:23:50.916Z,100739.47
2022-09-24T17:26:19.630Z,100736.88
2022-09-24T17:28:47.525Z,100745.91
2022-09-24T17:31:16.624Z,100748.63
2022-09-24T17:33:44.235Z,100753.81
2022-09-24T17:36:14.974Z,100755.91
2022-09-24T17:38:42.397Z,100759.75
2022-09-24T17:41:11.668Z,100756.59
2022-09-24T17:43:40.714Z,100755.59
2022-09-24T17:46:22.426Z,100756.41
2022-09-24T17:48:54.461Z,100756.72
2022-09-24T17:51:23.218Z,100760.91
2022-09-24T17:53:51.694Z,100758.50
2022-09-24T17:56:19.187Z,100762.88
2022-09-24T17:58:46.924Z,100761.47
2022-09-24T18:01:22.621Z,100761.34
2022-09-24T18:03:56.230Z,100763.69
2022-09-24T18:06:26.322Z,100765.19
2022-09-24T18:08:56.947Z,100760.75
2022-09-24T18:11:26.091Z,100763.16
2022-09-24T18:13:55.120Z,100757.66
2022-09-24T18:16:24.431Z,100759.72
2022-09-24T18:18:51.308Z,100762.19
2022-09-24T18:21:23.269Z,100757.88
2022-09-24T18:23:54.303Z,100766.34
2022-09-24T18:26:29.281Z,100753.59
2022-09-24T18:28:58.804Z,100758.91
2022-09-24T18:31:29.458Z,100758.69
2022-09-24T18:33:58.284Z,100760.97
2022-09-24T18:36:25.726Z,100760.84
2022-09-24T18:38:53.134Z,100762.19
2022-09-24T18:41:22.638Z,100759.72
2022-09-24T18:43:49.749Z,100762.75
2022-09-24T18:46:17.947Z,100772.38
2022-09-24T18:48:47.159Z,100768.50
2022-09-24T18:51:25.441Z,100775.69
2022-09-24T18:54:06.308Z,100771.75
2022-09-24T18:56:33.160Z,100774.69
2022-09-24T18:59:09.948Z,100789.34
2022-09-24T19:01:37.739Z,100786.97
2022-09-24T19:04:04.399Z,100784.28
2022-09-24T19:06:33.702Z,100788.31
2022-09-24T19:09:00.204Z,100788.56
2022-09-24T19:11:28.045Z,100787.63
2022-09-24T19:13:54.610Z,100783.94
2022-09-24T19:16:26.141Z,100789.22
2022-09-24T19:18:53.530Z,100785.97
2022-09-24T19:21:21.301Z,100791.50
2022-09-24T19:23:49.800Z,100790.34
2022-09-24T19:26:22.477Z,100790.56
2022-09-24T19:28:52.790Z,100789.69
2022-09-24T19:31:22.007Z,100787.66
2022-09-24T19:33:49.995Z,100781.81
2022-09-24T19:36:17.290Z,100787.78
2022-09-24T19:38:43.984Z,100786.09
2022-09-24T19:41:18.314Z,100787.22
2022-09-24T19:43:45.068Z,100779.13
2022-09-24T19:46:16.768Z,100785.41
2022-09-24T19:48:45.574Z,100783.84
2022-09-24T19:51:13.309Z,100786.19
2022-09-24T19:53:39.753Z,100781.59
2022-09-24T19:56:08.646Z,100784.53
2022-09-24T19:58:35.242Z,100783.63
2022-09-24T20:01:03.534Z,100784.63
2022-09-24T20:03:31.720Z,100782.38
2022-09-24T20:05:58.114Z,100783.19
2022-09-24T20:08:25.028Z,100779.34
2022-09-24T20:10:51.573Z,100775.13
2022-09-24T20:13:18.486Z,100772.22
2022-09-24T20:15:44.966Z,100769.19
2022-09-24T20:18:12.456Z,100774.78
2022-09-24T20:20:42.376Z,100769.00
2022-09-24T20:23:10.772Z,100765.59
2022-09-24T20:25:55.819Z,100772.78
2022-09-24T20:28:22.362Z,100763.88
2022-09-24T20:30:48.801Z,100768.84
2022-09-24T20:33:15.314Z,100760.19
2022-09-24T20:35:42.242Z,100751.97
2022-09-24T20:38:09.392Z,100757.00
2022-09-24T20:40:39.215Z,100753.41
2022-09-24T20:43:05.739Z,100746.31
2022-09-24T20:45:33.118Z,100754.09
2022-09-24T20:48:00.490Z,100756.78
2022-09-24T20:50:26.935Z,100757.25
2022-09-24T20:52:53.393Z,100758.03
2022-09-24T20:55:19.768Z,100761.09
2022-09-24T20:57:46.207Z,100761.22
2022-09-24T21:00:14.847Z,100760.31
2022-09-24T21:02:41.965Z,100759.19
2022-09-24T21:05:10.283Z,100764.56
2022-09-24T21:07:40.569Z,100769.44
2022-09-24T21:10:12.187Z,100770.91
2022-09-24T21:12:39.466Z,100773.84
2022-09-24T21:15:07.129Z,100762.44
2022-09-24T21:17:33.918Z,100770.78
2022-09-24T21:20:00.630Z,100763.81
2022-09-24T21:22:27.120Z,100760.88
2022-09-24T21:24:53.611Z,100764.47
2022-09-24T21:27:20.016Z,100770.69
2022-09-24T21:29:47.306Z,100768.66
2022-09-24T21:32:17.920Z,100772.34
2022-09-24T21:34:45.192Z,100771.09
2022-09-24T21:37:15.117Z,100764.91
2022-09-24T21:39:44.389Z,100766.69
2022-09-24T21:42:11.729Z,100763.75
2022-09-24T21:44:38.493Z,100766.25
2022-09-24T21:47:05.048Z,100757.91
2022-09-24T21:49:33.498Z,100759.94
2022-09-24T21:51:59.885Z,100751.16
2022-09-24T21:54:26.300Z,100756.59
2022-09-24T21:56:54.218Z,100757.25
2022-09-24T21:59:39.395Z,100753.75
2022-09-24T22:02:05.861Z,100754.66
2022-09-24T22:04:33.197Z,100760.41
2022-09-24T22:07:00.084Z,100768.84
2022-09-24T22:09:26.781Z,100753.19
2022-09-24T22:11:55.763Z,100752.09
2022-09-24T22:14:23.202Z,100761.41
2022-09-24T22:16:49.691Z,100759.59
2022-09-24T22:19:16.233Z,100757.00
2022-09-24T22:21:42.716Z,100764.69
2022-09-24T22:24:09.654Z,100765.59
2022-09-24T22:26:36.159Z,100764.56
2022-09-24T22:29:03.864Z,100771.31
2022-09-24T22:31:30.645Z,100762.88
2022-09-24T22:34:15.554Z,100756.91
2022-09-24T22:36:42.104Z,100755.91
2022-09-24T22:39:08.676Z,100750.72
2022-09-24T22:41:38.089Z,100749.16
2022-09-24T22:44:05.477Z,100750.59
2022-09-24T22:46:33.153Z,100747.47
2022-09-24T22:48:59.662Z,100732.34
2022-09-24T22:51:27.167Z,100733.38
2022-09-24T22:53:56.835Z,100726.63
2022-09-24T22:56:25.741Z,100717.16
2022-09-24T22:58:57.974Z,100716.38
2022-09-24T23:01:28.242Z,100711.88
2022-09-24T23:03:56.210Z,100713.69
2022-09-24T23:06:23.357Z,100703.44
2022-09-24T23:08:50.784Z,100703.88
2022-09-24T23:11:22.915Z,100701.53
2022-09-24T23:13:55.156Z,100702.53
2022-09-24T23:16:27.430Z,100709.72
2022-09-24T23:18:56.220Z,100706.69
2022-09-24T23:21:25.493Z,100701.53
2022-09-24T23:23:54.175Z,100705.13
2022-09-24T23:26:22.247Z,100708.59
2022-09-24T23:28:52.933Z,100708.84
2022-09-24T23:31:22.511Z,100704.81
2022-09-24T23:33:49.863Z,100702.97
2022-09-24T23:36:16.353Z,100696.22
2022-09-24T23:38:43.762Z,100696.44
2022-09-24T23:41:11.475Z,100693.28
2022-09-24T23:43:38.170Z,100691.94
2022-09-24T23:46:05.171Z,100679.31
2022-09-24T23:48:31.933Z,100673.44
2022-09-24T23:50:58.706Z,100678.91
2022-09-24T23:53:25.737Z,100673.44
2022-09-24T23:55:53.865Z,100681.22
2022-09-24T23:58:21.288Z,100678.00
